Time;durP1;ratioP1;P1;durP2;ratioP2;P2;SDS_P1;SDS_P2;PMS_P1;PMS_P2;Temp;Humidity;BMP_temperature;BMP_pressure;BME280_temperature;BME280_humidity;BME280_pressure;Samples;Min_cycle;Max_cycle;Signal;HPM_P1;HPM_P2
2022/04/19 00:01:32;;;;;;;0.00;0.00;;;8.40;99.90;;;;;;4990943;28;20109;-66
2022/04/19 00:03:58;;;;;;;0.20;0.20;;;8.30;99.90;;;;;;4990847;28;20041;-66
2022/04/19 00:06:24;;;;;;;0.20;0.20;;;8.20;99.90;;;;;;4990744;28;20030;-66
2022/04/19 00:08:51;;;;;;;0.10;0.10;;;8.30;99.90;;;;;;4991496;28;20030;-66
2022/04/19 00:11:18;;;;;;;0.00;0.00;;;8.50;99.90;;;;;;4991178;28;20023;-66
2022/04/19 00:13:43;;;;;;;0.00;0.00;;;8.60;99.90;;;;;;4989984;28;20523;-66
2022/04/19 00:16:09;;;;;;;0.13;0.13;;;8.80;99.90;;;;;;4990958;28;20304;-66
2022/04/19 00:18:35;;;;;;;1.00;1.00;;;8.90;99.90;;;;;;4990456;28;20044;-66
2022/04/19 00:21:02;;;;;;;2.92;1.00;;;8.90;99.90;;;;;;4990846;28;20057;-66
2022/04/19 00:23:30;;;;;;;0.15;0.15;;;9.10;99.00;;;;;;4990873;28;20030;-66
2022/04/19 00:25:56;;;;;;;0.00;0.00;;;9.30;98.00;;;;;;4989605;28;20169;-66
2022/04/19 00:28:22;;;;;;;0.00;0.00;;;9.40;97.30;;;;;;4990774;28;20778;-66
2022/04/19 00:30:48;;;;;;;0.10;0.10;;;9.40;96.80;;;;;;4990665;28;20045;-66
2022/04/19 00:33:14;;;;;;;3.75;1.20;;;9.30;96.80;;;;;;4989562;28;20414;-66
2022/04/19 00:35:40;;;;;;;3.55;1.17;;;9.30;97.10;;;;;;4989622;28;20070;-67
2022/04/19 00:38:06;;;;;;;0.20;0.20;;;9.20;97.10;;;;;;4989293;28;20100;-67
2022/04/19 00:40:32;;;;;;;0.00;0.00;;;9.10;97.10;;;;;;4989210;28;20490;-67
2022/04/19 00:42:58;;;;;;;0.08;0.08;;;9.10;97.20;;;;;;4989046;28;20035;-67
2022/04/19 00:45:26;;;;;;;0.08;0.08;;;9.10;97.10;;;;;;4990739;28;20025;-67
2022/04/19 00:47:53;;;;;;;0.05;0.05;;;9.10;97.20;;;;;;4990480;28;20114;-66
2022/04/19 00:50:20;;;;;;;0.13;0.13;;;9.10;96.90;;;;;;4989412;28;20034;-66
2022/04/19 00:52:45;;;;;;;0.17;0.17;;;9.10;97.00;;;;;;4990646;28;20034;-65
2022/04/19 00:55:12;;;;;;;1.20;1.10;;;9.10;96.90;;;;;;4989218;28;20026;-65
2022/04/19 00:57:40;;;;;;;0.20;0.20;;;8.70;97.40;;;;;;4990585;28;20046;-65
2022/04/19 01:00:12;;;;;;;0.00;0.00;;;8.70;97.50;;;;;;4992521;28;20058;-66
2022/04/19 01:02:38;;;;;;;0.10;0.10;;;8.70;97.60;;;;;;4992965;28;20058;-66
2022/04/19 01:05:05;;;;;;;0.00;0.00;;;8.90;97.30;;;;;;4984362;28;20511;-66
2022/04/19 01:07:32;;;;;;;0.10;0.10;;;8.90;97.30;;;;;;4993167;28;20467;-66
2022/04/19 01:09:58;;;;;;;0.00;0.00;;;9.00;97.30;;;;;;4980433;28;20559;-66
2022/04/19 01:15:11;;;;;;;0.00;0.00;;;8.90;97.50;;;;;;4988233;28;20080;-66
2022/04/19 01:17:40;;;;;;;0.20;0.20;;;8.70;98.00;;;;;;4988844;28;20033;-66
2022/04/19 01:20:09;;;;;;;0.30;0.30;;;8.70;97.80;;;;;;4974580;28;20034;-66
2022/04/19 01:22:37;;;;;;;0.00;0.00;;;8.80;97.80;;;;;;4989327;28;20114;-66
2022/04/19 01:25:04;;;;;;;0.25;0.25;;;8.90;97.70;;;;;;4989796;28;20250;-66
2022/04/19 01:27:30;;;;;;;0.82;0.82;;;8.90;97.70;;;;;;4993117;28;20173;-66
2022/04/19 01:30:01;;;;;;;0.20;0.20;;;8.90;97.80;;;;;;4992297;28;20113;-66
2022/04/19 01:32:31;;;;;;;0.10;0.10;;;8.90;97.60;;;;;;4993697;28;20030;-65
2022/04/19 01:35:15;;;;;;;0.00;0.00;;;8.80;98.20;;;;;;4992074;28;20026;-65
2022/04/19 01:37:50;;;;;;;0.00;0.00;;;8.30;99.80;;;;;;4993024;28;20172;-66
2022/04/19 01:40:17;;;;;;;0.10;0.10;;;8.10;99.90;;;;;;4991505;28;20173;-65
2022/04/19 01:45:28;;;;;;;0.30;0.30;;;7.60;99.90;;;;;;4946972;28;20106;-68
2022/04/19 01:47:59;;;;;;;0.05;0.05;;;7.10;99.90;;;;;;4949254;29;20039;-68
2022/04/19 01:50:27;;;;;;;0.10;0.10;;;6.90;99.90;;;;;;4935299;29;20118;-67
2022/04/19 01:52:55;;;;;;;1.55;1.45;;;6.80;99.90;;;;;;4949778;29;20041;-68
2022/04/19 01:55:22;;;;;;;0.57;0.57;;;6.90;99.90;;;;;;4933742;29;20512;-68
2022/04/19 01:57:57;;;;;;;0.00;0.00;;;7.20;99.90;;;;;;4933794;29;20083;-68
2022/04/19 02:00:29;;;;;;;0.00;0.00;;;7.40;99.90;;;;;;4934125;29;20126;-68
2022/04/19 02:02:55;;;;;;;0.38;0.38;;;7.40;99.90;;;;;;4933650;29;20028;-69
2022/04/19 02:05:22;;;;;;;0.22;0.22;;;7.40;99.90;;;;;;4933801;29;20106;-68
2022/04/19 02:07:48;;;;;;;0.00;0.00;;;7.60;99.90;;;;;;4933464;29;20023;-68
2022/04/19 02:10:18;;;;;;;0.00;0.00;;;7.60;99.90;;;;;;4933436;29;20034;-68
2022/04/19 02:12:45;;;;;;;0.52;0.52;;;7.60;99.90;;;;;;4933900;29;20419;-68
2022/04/19 02:15:11;;;;;;;0.00;0.00;;;7.90;99.90;;;;;;4940596;29;20039;-69
2022/04/19 02:17:49;;;;;;;0.00;0.00;;;8.20;99.90;;;;;;4968396;28;20031;-68
2022/04/19 02:20:17;;;;;;;6.22;2.38;;;8.30;99.90;;;;;;4968740;28;20027;-68
2022/04/19 02:22:44;;;;;;;3.78;0.52;;;8.30;99.90;;;;;;4953580;28;20035;-68
2022/04/19 02:25:15;;;;;;;1.45;1.10;;;8.30;99.80;;;;;;4953968;29;20480;-68
2022/04/19 02:27:42;;;;;;;0.20;0.20;;;8.40;99.90;;;;;;4968262;28;20035;-69
2022/04/19 02:30:14;;;;;;;1.38;1.00;;;8.30;99.90;;;;;;4953927;29;20027;-69
2022/04/19 02:32:50;;;;;;;0.45;0.20;;;8.40;99.80;;;;;;4968138;28;20543;-69
2022/04/19 02:35:20;;;;;;;0.00;0.00;;;8.40;99.90;;;;;;4953847;28;20057;-69
2022/04/19 02:37:51;;;;;;;0.00;0.00;;;8.50;99.90;;;;;;4968067;28;20027;-69
2022/04/19 02:40:19;;;;;;;0.10;0.10;;;8.50;99.90;;;;;;4968338;28;20034;-68
2022/04/19 02:42:47;;;;;;;0.00;0.00;;;8.60;99.90;;;;;;4968393;28;20035;-69
2022/04/19 02:45:13;;;;;;;0.00;0.00;;;8.60;99.90;;;;;;4968023;28;20027;-69
2022/04/19 02:47:41;;;;;;;0.50;0.50;;;8.60;99.90;;;;;;4952973;28;20027;-68
2022/04/19 02:50:07;;;;;;;0.65;0.47;;;8.60;99.90;;;;;;4953425;28;20031;-68
2022/04/19 02:52:33;;;;;;;0.15;0.15;;;8.00;99.90;;;;;;4953501;29;20700;-68
2022/04/19 02:54:59;;;;;;;0.00;0.00;;;7.30;99.90;;;;;;4953685;29;20070;-68
2022/04/19 02:57:25;;;;;;;0.98;0.98;;;6.70;99.90;;;;;;4953355;29;20097;-68
2022/04/19 02:59:51;;;;;;;1.48;1.38;;;6.20;99.90;;;;;;4953006;28;20130;-69
2022/04/19 03:02:18;;;;;;;0.10;0.10;;;6.10;99.90;;;;;;4951347;28;20035;-68
2022/04/19 03:04:44;;;;;;;0.08;0.08;;;6.10;99.90;;;;;;4931129;29;20023;-68
2022/04/19 03:07:09;;;;;;;0.00;0.00;;;6.10;99.90;;;;;;4934647;28;20936;-68
2022/04/19 03:09:35;;;;;;;0.50;0.50;;;6.20;99.90;;;;;;4950949;29;20074;-68
2022/04/19 03:12:01;;;;;;;0.45;0.45;;;6.40;99.90;;;;;;4952850;29;20028;-68
2022/04/19 03:14:29;;;;;;;0.00;0.00;;;6.70;99.90;;;;;;4951466;28;20063;-68
2022/04/19 03:16:55;;;;;;;0.75;0.40;;;6.90;99.90;;;;;;4946603;29;20073;-68
2022/04/19 03:19:21;;;;;;;1.95;1.23;;;7.10;99.90;;;;;;4967477;28;20086;-68
2022/04/19 03:21:47;;;;;;;1.08;0.73;;;7.30;99.90;;;;;;4952325;28;20031;-67
2022/04/19 03:29:40;;;;;;;0.75;0.68;;;6.80;99.90;;;;;;4933142;29;20487;-67
2022/04/19 03:32:09;;;;;;;0.20;0.20;;;6.60;99.90;;;;;;4933705;29;20114;-68
2022/04/19 03:34:35;;;;;;;0.10;0.10;;;6.60;99.90;;;;;;4933477;29;20596;-67
2022/04/19 03:37:01;;;;;;;0.00;0.00;;;6.50;99.90;;;;;;4947847;29;20118;-68
2022/04/19 03:39:26;;;;;;;0.00;0.00;;;6.30;99.90;;;;;;4933058;28;20038;-68
2022/04/19 03:41:52;;;;;;;0.20;0.20;;;6.20;99.90;;;;;;4940832;29;20058;-67
2022/04/19 03:44:18;;;;;;;0.00;0.00;;;6.00;99.90;;;;;;4966808;28;20035;-67
2022/04/19 03:47:26;;;;;;;0.00;0.00;;;6.10;99.90;;;;;;4941762;29;20039;-68
2022/04/19 03:49:34;;;;;;;0.00;0.00;;;6.10;99.90;;;;;;4937642;29;20043;-67
2022/04/19 03:52:01;;;;;;;1.38;0.68;;;6.10;99.90;;;;;;4941913;29;20027;-67
2022/04/19 03:54:27;;;;;;;0.60;0.22;;;6.30;99.90;;;;;;4955352;28;20403;-67
2022/04/19 03:56:53;;;;;;;0.10;0.10;;;6.50;99.90;;;;;;4956310;28;20032;-67
2022/04/19 03:59:19;;;;;;;0.20;0.20;;;6.80;99.90;;;;;;4934203;28;20039;-67
2022/04/19 04:01:48;;;;;;;0.00;0.00;;;6.90;99.90;;;;;;4951591;28;20032;-68
2022/04/19 04:04:13;;;;;;;0.90;0.65;;;6.90;99.90;;;;;;4928979;29;20586;-67
2022/04/19 04:06:39;;;;;;;0.15;0.15;;;7.00;99.90;;;;;;4932947;29;20028;-71
2022/04/19 04:09:05;;;;;;;0.20;0.20;;;7.00;99.90;;;;;;4931737;29;20028;-69
2022/04/19 04:11:32;;;;;;;0.32;0.32;;;7.00;99.90;;;;;;4931362;29;20028;-70
2022/04/19 04:13:58;;;;;;;0.10;0.10;;;7.00;99.90;;;;;;4943648;28;20071;-70
2022/04/19 04:16:24;;;;;;;0.10;0.10;;;7.00;99.90;;;;;;4930419;29;20122;-70
2022/04/19 04:18:50;;;;;;;0.30;0.30;;;7.00;99.90;;;;;;4912778;29;20051;-67
2022/04/19 04:21:15;;;;;;;0.10;0.10;;;6.90;99.90;;;;;;4922373;29;20044;-71
2022/04/19 04:23:41;;;;;;;0.85;0.85;;;7.00;99.90;;;;;;4913493;29;20036;-71
2022/04/19 04:26:07;;;;;;;0.60;0.60;;;7.00;99.90;;;;;;4913445;29;20032;-71
2022/04/19 04:28:33;;;;;;;0.22;0.20;;;7.00;99.90;;;;;;4913824;29;20028;-69
2022/04/19 04:30:58;;;;;;;0.10;0.10;;;7.10;99.90;;;;;;4913692;29;20056;-70
2022/04/19 04:33:24;;;;;;;0.17;0.17;;;7.10;99.90;;;;;;4912929;29;20568;-71
2022/04/19 04:35:50;;;;;;;0.10;0.10;;;6.80;99.90;;;;;;4915765;29;20032;-70
2022/04/19 04:38:15;;;;;;;0.32;0.32;;;6.80;99.90;;;;;;4916662;29;20054;-72
2022/04/19 04:40:41;;;;;;;0.20;0.20;;;6.70;99.90;;;;;;4923421;29;20068;-70
2022/04/19 04:43:07;;;;;;;0.08;0.05;;;6.50;99.90;;;;;;4926424;29;20024;-69
2022/04/19 04:45:32;;;;;;;0.20;0.20;;;6.60;99.90;;;;;;4926066;29;20028;-69
2022/04/19 04:50:42;;;;;;;0.10;0.10;;;6.90;99.90;;;;;;4916772;29;20066;-69
2022/04/19 04:53:08;;;;;;;0.10;0.10;;;6.90;99.90;;;;;;4917444;29;20393;-69
2022/04/19 04:55:34;;;;;;;0.05;0.05;;;6.90;99.90;;;;;;4921035;29;20107;-69
2022/04/19 04:58:01;;;;;;;0.90;0.43;;;6.90;99.90;;;;;;4926342;29;20019;-69
2022/04/19 05:00:28;;;;;;;0.43;0.43;;;6.90;99.90;;;;;;4934187;29;20036;-69
2022/04/19 05:02:55;;;;;;;0.88;0.88;;;7.00;99.90;;;;;;4924291;29;20032;-69
2022/04/19 05:05:22;;;;;;;0.65;0.65;;;7.00;99.90;;;;;;4915221;29;20497;-69
2022/04/19 05:07:47;;;;;;;0.93;0.65;;;7.00;99.90;;;;;;4915368;29;20476;-68
2022/04/19 05:10:14;;;;;;;0.10;0.10;;;7.00;99.90;;;;;;4916395;29;20044;-69
2022/04/19 05:12:40;;;;;;;0.08;0.08;;;7.00;99.90;;;;;;4915708;29;20080;-70
2022/04/19 05:15:07;;;;;;;0.00;0.00;;;7.00;99.90;;;;;;4900626;28;20042;-69
2022/04/19 05:17:34;;;;;;;0.10;0.10;;;7.10;99.90;;;;;;4954968;29;20164;-69
2022/04/19 05:20:00;;;;;;;0.40;0.40;;;7.10;99.90;;;;;;4953354;29;20119;-68
2022/04/19 05:22:26;;;;;;;0.00;0.00;;;7.10;99.90;;;;;;4960310;28;20035;-67
2022/04/19 05:24:52;;;;;;;0.17;0.17;;;7.10;99.90;;;;;;4969178;28;20363;-67
2022/04/19 05:27:17;;;;;;;0.47;0.47;;;7.20;99.90;;;;;;4945891;29;20031;-67
2022/04/19 05:29:43;;;;;;;0.30;0.30;;;7.10;99.90;;;;;;4954407;28;20036;-66
2022/04/19 05:32:10;;;;;;;0.35;0.35;;;7.20;99.90;;;;;;4954518;28;20026;-67
2022/04/19 05:34:35;;;;;;;0.60;0.60;;;7.20;99.90;;;;;;4936615;29;20482;-66
2022/04/19 05:37:01;;;;;;;0.00;0.00;;;7.20;99.90;;;;;;4934932;29;20043;-66
2022/04/19 05:39:27;;;;;;;0.32;0.30;;;7.40;99.90;;;;;;4934846;29;20040;-68
2022/04/19 05:41:52;;;;;;;0.00;0.00;;;7.30;99.90;;;;;;4933076;29;20090;-71
2022/04/19 05:44:20;;;;;;;0.20;0.20;;;7.30;99.90;;;;;;4948309;28;20035;-70
2022/04/19 05:46:45;;;;;;;0.20;0.20;;;7.40;99.90;;;;;;4949102;29;20133;-71
2022/04/19 05:49:11;;;;;;;0.43;0.25;;;7.50;99.90;;;;;;4933954;29;20024;-71
2022/04/19 05:51:37;;;;;;;0.00;0.00;;;7.50;99.90;;;;;;4934893;29;20027;-71
2022/04/19 05:54:03;;;;;;;14.70;1.65;;;7.60;99.90;;;;;;4934850;29;20159;-71
2022/04/19 05:56:30;;;;;;;0.13;0.13;;;7.70;99.90;;;;;;4947579;29;20034;-71
2022/04/19 05:58:55;;;;;;;0.38;0.38;;;7.80;99.90;;;;;;4952938;29;20054;-71
2022/04/19 06:01:22;;;;;;;0.80;0.80;;;7.80;99.90;;;;;;4959789;28;20036;-71
2022/04/19 06:06:32;;;;;;;0.10;0.10;;;7.90;99.90;;;;;;4954102;29;20023;-72
2022/04/19 06:08:57;;;;;;;0.00;0.00;;;8.00;99.90;;;;;;4953977;29;20085;-71
2022/04/19 06:11:23;;;;;;;10.38;1.77;;;8.00;99.90;;;;;;4954036;29;20024;-69
2022/04/19 06:13:49;;;;;;;0.40;0.40;;;8.10;99.90;;;;;;4956164;28;20072;-68
2022/04/19 06:16:15;;;;;;;1.08;0.52;;;8.20;99.90;;;;;;4943155;29;20569;-68
2022/04/19 06:18:40;;;;;;;3.10;2.80;;;8.30;99.90;;;;;;4951985;28;20036;-68
2022/04/19 06:21:06;;;;;;;1.98;1.67;;;8.40;99.90;;;;;;4934291;29;20039;-68
2022/04/19 06:23:33;;;;;;;5.90;5.38;;;8.90;99.90;;;;;;4934508;29;20091;-68
2022/04/19 06:25:59;;;;;;;1.98;1.38;;;9.30;99.90;;;;;;4934265;29;20043;-69
2022/04/19 06:28:25;;;;;;;2.75;1.17;;;9.40;99.90;;;;;;4934263;29;20058;-69
2022/04/19 06:30:50;;;;;;;0.00;0.00;;;9.30;99.90;;;;;;4934075;29;20119;-68
2022/04/19 06:33:16;;;;;;;4.60;3.65;;;9.60;99.90;;;;;;4940577;29;20031;-69
2022/04/19 06:35:42;;;;;;;0.60;0.60;;;10.00;99.90;;;;;;4933254;29;20093;-69
2022/04/19 06:38:11;;;;;;;2.58;1.63;;;10.10;99.90;;;;;;4934143;29;20027;-69
2022/04/19 06:40:37;;;;;;;0.30;0.30;;;9.70;99.90;;;;;;4934240;29;20050;-69
2022/04/19 06:43:03;;;;;;;0.50;0.50;;;9.50;99.90;;;;;;4933615;29;20491;-70
2022/04/19 06:45:29;;;;;;;0.20;0.20;;;9.60;99.90;;;;;;4934228;29;20421;-70
2022/04/19 06:47:59;;;;;;;0.20;0.20;;;9.40;99.90;;;;;;4933793;29;20051;-69
2022/04/19 06:50:26;;;;;;;0.10;0.10;;;9.40;99.90;;;;;;4934085;29;20107;-70
2022/04/19 06:52:52;;;;;;;0.20;0.20;;;9.50;99.90;;;;;;4948440;29;20496;-69
2022/04/19 06:55:21;;;;;;;0.17;0.17;;;9.60;99.90;;;;;;4948587;29;20043;-69
2022/04/19 06:57:48;;;;;;;0.10;0.10;;;9.60;99.90;;;;;;4947707;29;20036;-68
2022/04/19 07:00:15;;;;;;;0.47;0.47;;;9.60;99.90;;;;;;4949001;29;20063;-68
2022/04/19 07:02:42;;;;;;;1.45;1.35;;;9.40;99.90;;;;;;4956655;28;20042;-68
2022/04/19 07:05:08;;;;;;;0.10;0.10;;;9.60;99.90;;;;;;4952426;28;20106;-68
2022/04/19 07:07:33;;;;;;;0.10;0.10;;;9.80;99.90;;;;;;4967362;28;20035;-68
2022/04/19 07:09:59;;;;;;;0.80;0.80;;;9.70;99.90;;;;;;4952498;29;20074;-68
2022/04/19 07:12:25;;;;;;;0.63;0.63;;;9.60;99.90;;;;;;4952868;28;20054;-68
2022/04/19 07:14:51;;;;;;;0.85;0.85;;;9.70;99.90;;;;;;4952881;29;20043;-68
2022/04/19 07:17:17;;;;;;;0.05;0.05;;;9.80;99.90;;;;;;4952476;29;20062;-68
2022/04/19 07:28:03;;;;;;;1.58;1.45;;;10.00;99.90;;;;;;4947298;29;20090;-68
2022/04/19 07:30:29;;;;;;;3.15;2.28;;;10.40;99.90;;;;;;4933004;29;20019;-68
2022/04/19 07:32:56;;;;;;;4.15;2.92;;;10.50;99.90;;;;;;4957928;28;20384;-68
2022/04/19 07:35:22;;;;;;;1.20;0.85;;;10.80;99.90;;;;;;4951219;29;20463;-68
2022/04/19 07:37:47;;;;;;;0.10;0.10;;;10.80;99.90;;;;;;4951959;29;20042;-68
2022/04/19 07:40:13;;;;;;;0.45;0.45;;;10.80;99.80;;;;;;4952603;29;20071;-68
2022/04/19 07:42:39;;;;;;;0.00;0.00;;;10.80;98.90;;;;;;4966987;28;20158;-67
2022/04/19 07:45:06;;;;;;;3.10;1.48;;;10.80;98.80;;;;;;4986210;23;20042;-66
2022/04/19 07:47:32;;;;;;;0.30;0.30;;;10.80;98.30;;;;;;4974773;28;20030;-65
2022/04/19 07:49:58;;;;;;;0.15;0.15;;;10.80;98.70;;;;;;4986872;28;20121;-65
2022/04/19 07:52:24;;;;;;;0.38;0.38;;;10.70;97.70;;;;;;4971723;28;20181;-67
2022/04/19 07:54:50;;;;;;;0.28;0.28;;;10.80;97.30;;;;;;4970477;28;20034;-66
2022/04/19 07:57:21;;;;;;;0.63;0.50;;;10.90;97.80;;;;;;4971573;28;20053;-67
2022/04/19 07:59:51;;;;;;;0.10;0.10;;;10.90;97.50;;;;;;4970061;28;20116;-66
2022/04/19 08:02:19;;;;;;;0.70;0.67;;;11.00;97.90;;;;;;4970233;28;20441;-66
2022/04/19 08:04:45;;;;;;;0.00;0.00;;;11.10;97.80;;;;;;4968166;28;20483;-66
2022/04/19 08:07:11;;;;;;;4.38;2.05;;;11.20;97.00;;;;;;4982345;28;20031;-66
2022/04/19 08:09:37;;;;;;;2.28;0.65;;;11.20;96.60;;;;;;4978049;28;20039;-66
2022/04/19 08:12:05;;;;;;;1.27;1.17;;;11.20;96.10;;;;;;4958952;28;20519;-66
2022/04/19 08:14:31;;;;;;;25.60;2.50;;;11.30;96.60;;;;;;4958455;28;20038;-66
2022/04/19 08:16:57;;;;;;;0.00;0.00;;;11.50;96.30;;;;;;4988547;28;20049;-66
2022/04/19 08:19:23;;;;;;;1.90;1.52;;;11.70;95.80;;;;;;4978051;28;20093;-65
2022/04/19 08:21:50;;;;;;;0.08;0.08;;;11.60;95.40;;;;;;4992414;28;20030;-66
2022/04/19 08:24:16;;;;;;;1.02;0.57;;;11.70;95.70;;;;;;4972490;28;20106;-66
2022/04/19 08:26:41;;;;;;;1.00;1.00;;;11.90;95.30;;;;;;4958284;29;20106;-66
2022/04/19 08:29:07;;;;;;;0.15;0.15;;;12.00;94.90;;;;;;4958572;29;20696;-66
2022/04/19 08:31:34;;;;;;;0.57;0.57;;;12.10;94.40;;;;;;4973026;28;20355;-66
2022/04/19 08:34:01;;;;;;;0.90;0.85;;;12.30;94.90;;;;;;4977454;28;20035;-66
2022/04/19 08:36:26;;;;;;;0.03;0.03;;;12.40;93.90;;;;;;4976190;28;20151;-66
2022/04/19 08:38:52;;;;;;;0.77;0.43;;;12.60;93.20;;;;;;4977333;28;20122;-66
2022/04/19 08:41:20;;;;;;;3.85;2.80;;;12.70;94.30;;;;;;4977234;28;20471;-66
2022/04/19 08:43:46;;;;;;;0.43;0.43;;;12.70;94.00;;;;;;4977282;28;20046;-66
2022/04/19 08:46:14;;;;;;;0.10;0.10;;;13.00;94.20;;;;;;4973102;28;20035;-66
2022/04/19 08:48:40;;;;;;;1.88;1.65;;;13.00;93.30;;;;;;4972740;28;20058;-65
2022/04/19 08:51:10;;;;;;;0.20;0.20;;;12.90;93.10;;;;;;4972948;28;20031;-66
2022/04/19 08:59:06;;;;;;;0.15;0.15;;;13.40;92.20;;;;;;4970674;28;20035;-66
2022/04/19 09:01:35;;;;;;;1.35;1.25;;;13.60;92.10;;;;;;4958509;28;20423;-66
2022/04/19 09:04:04;;;;;;;2.95;1.58;;;13.80;91.60;;;;;;4976885;28;20035;-66
2022/04/19 09:06:54;;;;;;;0.52;0.40;;;13.90;91.10;;;;;;4976988;28;20093;-66
2022/04/19 09:09:29;;;;;;;4.38;2.38;;;14.00;90.90;;;;;;4992033;28;20034;-66
2022/04/19 09:12:12;;;;;;;1.00;0.93;;;14.10;90.90;;;;;;4991553;28;20038;-66
2022/04/19 09:15:03;;;;;;;1.17;0.52;;;14.30;90.80;;;;;;4977832;28;20046;-66
2022/04/19 09:17:40;;;;;;;1.45;0.50;;;14.30;90.50;;;;;;4976987;28;20042;-66
2022/04/19 09:20:18;;;;;;;0.93;0.57;;;14.40;90.00;;;;;;4988769;28;20035;-64
2022/04/19 09:22:45;;;;;;;0.35;0.35;;;14.50;90.10;;;;;;4974248;28;20030;-66
2022/04/19 09:25:25;;;;;;;0.47;0.47;;;14.70;89.10;;;;;;4988949;28;20031;-67
2022/04/19 09:27:56;;;;;;;3.00;2.67;;;14.70;88.60;;;;;;4973845;28;20622;-64
2022/04/19 09:30:26;;;;;;;;;;;14.90;88.60;;;;;;4988926;28;20027;-65
2022/04/19 09:33:14;;;;;;;2.33;1.00;;;15.10;87.40;;;;;;4973809;28;19960;-64
2022/04/19 09:35:43;;;;;;;1.85;0.80;;;15.10;86.60;;;;;;4960813;28;20039;-65
2022/04/19 09:38:10;;;;;;;0.10;0.10;;;15.10;87.50;;;;;;4954055;28;20027;-65
2022/04/19 09:40:43;;;;;;;0.10;0.10;;;15.40;87.10;;;;;;4955005;29;20503;-65
2022/04/19 09:43:23;;;;;;;4.18;1.55;;;15.60;87.40;;;;;;4969071;28;20023;-65
2022/04/19 09:45:54;;;;;;;1.70;1.30;;;15.70;83.60;;;;;;4968606;28;20042;-65
2022/04/19 09:48:29;;;;;;;0.63;0.63;;;16.00;80.80;;;;;;4953994;28;20093;-66
2022/04/19 09:50:57;;;;;;;0.13;0.13;;;16.00;81.70;;;;;;4968403;28;20023;-66
2022/04/19 09:53:27;;;;;;;0.50;0.50;;;16.10;78.40;;;;;;4954257;28;20114;-66
2022/04/19 09:55:56;;;;;;;0.30;0.30;;;16.50;79.70;;;;;;4954121;28;20034;-66
2022/04/19 09:58:24;;;;;;;0.15;0.15;;;16.60;79.30;;;;;;4968777;28;20038;-66
2022/04/19 10:00:51;;;;;;;1.17;1.08;;;16.70;80.90;;;;;;4968707;28;20027;-66
2022/04/19 10:08:53;;;;;;;0.30;0.20;;;17.20;79.10;;;;;;4954040;29;20074;-66
2022/04/19 10:11:19;;;;;;;0.10;0.10;;;16.80;77.90;;;;;;4953716;28;20035;-66
2022/04/19 10:13:46;;;;;;;0.13;0.13;;;17.00;79.10;;;;;;4968699;28;20031;-66
2022/04/19 10:16:15;;;;;;;0.00;0.00;;;17.30;78.80;;;;;;4968312;28;20472;-66
2022/04/19 10:18:45;;;;;;;1.75;1.45;;;17.50;78.10;;;;;;4953902;29;20110;-66
2022/04/19 10:21:17;;;;;;;0.20;0.20;;;17.50;76.80;;;;;;4968509;28;20476;-66
2022/04/19 10:23:45;;;;;;;0.10;0.10;;;17.80;77.00;;;;;;4968252;28;20039;-66
2022/04/19 10:26:24;;;;;;;1.55;0.90;;;17.80;75.10;;;;;;4954072;29;20082;-67
2022/04/19 10:28:58;;;;;;;1.90;0.32;;;18.00;71.20;;;;;;4970074;28;20035;-65
2022/04/19 10:31:31;;;;;;;0.65;0.65;;;17.70;74.30;;;;;;4968080;28;20387;-65
2022/04/19 10:34:03;;;;;;;0.22;0.22;;;17.80;74.60;;;;;;4970535;28;20166;-65
2022/04/19 10:36:40;;;;;;;0.90;0.90;;;18.10;73.80;;;;;;4962977;28;20506;-65
2022/04/19 10:39:12;;;;;;;0.30;0.28;;;18.30;73.30;;;;;;4978299;28;20475;-65
2022/04/19 10:41:48;;;;;;;32.22;2.35;;;18.10;73.50;;;;;;4963257;28;20614;-65
2022/04/19 10:44:36;;;;;;;1.75;1.55;;;18.20;72.70;;;;;;4970195;28;20451;-65
2022/04/19 10:47:07;;;;;;;0.50;0.40;;;18.30;71.90;;;;;;4953141;29;20032;-65
2022/04/19 10:50:01;;;;;;;2.42;0.45;;;18.60;71.90;;;;;;4968106;28;20483;-62
2022/04/19 10:52:45;;;;;;;0.22;0.22;;;18.70;72.20;;;;;;4956032;28;20713;-65
2022/04/19 10:55:26;;;;;;;0.90;0.85;;;18.90;72.20;;;;;;4961944;28;20028;-65
2022/04/19 10:58:23;;;;;;;0.00;0.00;;;19.10;69.80;;;;;;4965227;28;20069;-65
2022/04/19 11:01:00;;;;;;;7.88;2.17;;;18.90;70.60;;;;;;4957603;28;20081;-65
2022/04/19 11:03:26;;;;;;;0.90;0.73;;;19.30;68.20;;;;;;4952726;28;20098;-65
2022/04/19 11:05:57;;;;;;;0.35;0.32;;;18.90;67.90;;;;;;4953060;29;20483;-65
2022/04/19 11:08:25;;;;;;;;;;;19.20;68.20;;;;;;4968215;28;20031;-65
2022/04/19 11:11:04;;;;;;;0.77;0.52;;;19.60;66.10;;;;;;4952965;29;19917;-65
2022/04/19 11:13:38;;;;;;;1.10;0.85;;;19.60;67.50;;;;;;4953023;29;20499;-65
2022/04/19 11:16:03;;;;;;;0.38;0.38;;;19.90;65.40;;;;;;4961084;28;20117;-65
2022/04/19 11:18:39;;;;;;;0.93;0.85;;;20.10;66.30;;;;;;4971656;28;20114;-65
2022/04/19 11:21:11;;;;;;;0.00;0.00;;;20.20;65.70;;;;;;4972494;28;20121;-65
2022/04/19 11:23:48;;;;;;;0.75;0.65;;;20.30;65.20;;;;;;4986703;28;20118;-65
2022/04/19 11:26:34;;;;;;;0.20;0.20;;;20.00;66.60;;;;;;4972123;28;20469;-66
2022/04/19 11:29:29;;;;;;;0.30;0.30;;;20.40;64.20;;;;;;4971801;28;20031;-66
2022/04/19 11:31:54;;;;;;;2.53;1.33;;;20.30;61.30;;;;;;4967485;28;20101;-66
2022/04/19 11:34:20;;;;;;;0.03;0.03;;;20.50;62.10;;;;;;4950928;29;20038;-66
2022/04/19 11:36:46;;;;;;;0.17;0.15;;;20.50;61.20;;;;;;4952312;29;20035;-65
2022/04/19 11:46:44;;;;;;;0.75;0.70;;;20.90;60.60;;;;;;4951078;29;20031;-65
2022/04/19 11:47:52;;;;;;;0.32;0.30;;;20.70;61.00;;;;;;4963104;28;20019;-66
2022/04/19 11:50:30;;;;;;;5.38;0.50;;;20.10;60.00;;;;;;4966844;28;20019;-66
2022/04/19 11:53:00;;;;;;;0.10;0.10;;;19.90;62.50;;;;;;4951386;29;20063;-67
2022/04/19 11:55:27;;;;;;;1.27;0.67;;;20.40;60.50;;;;;;4951674;29;20031;-66
2022/04/19 11:58:09;;;;;;;0.47;0.32;;;20.80;60.80;;;;;;4952241;28;20063;-66
2022/04/19 12:00:36;;;;;;;0.00;0.00;;;21.30;58.50;;;;;;4952463;29;20075;-66
2022/04/19 12:03:22;;;;;;;0.50;0.45;;;21.20;54.60;;;;;;4966887;28;20643;-65
2022/04/19 12:05:48;;;;;;;0.55;0.55;;;21.70;54.50;;;;;;4959602;28;20087;-65
2022/04/19 12:08:33;;;;;;;0.70;0.60;;;21.10;55.20;;;;;;4971031;28;20448;-65
2022/04/19 12:11:26;;;;;;;11.70;1.85;;;21.00;55.70;;;;;;4986011;28;20046;-65
2022/04/19 12:13:53;;;;;;;0.17;0.17;;;21.30;57.00;;;;;;4971176;28;20042;-65
2022/04/19 12:16:36;;;;;;;0.68;0.32;;;21.60;55.60;;;;;;4985659;28;20034;-64
2022/04/19 12:19:08;;;;;;;0.30;0.30;;;21.70;53.30;;;;;;4986099;28;20528;-64
2022/04/19 12:21:46;;;;;;;0.00;0.00;;;21.70;52.80;;;;;;4971539;28;20039;-65
2022/04/19 12:24:24;;;;;;;0.08;0.08;;;21.70;52.50;;;;;;4960426;28;20072;-65
2022/04/19 12:27:07;;;;;;;1.02;0.35;;;21.10;52.30;;;;;;4951639;29;20032;-66
2022/04/19 12:29:53;;;;;;;0.52;0.15;;;20.80;54.90;;;;;;4952005;29;20035;-66
2022/04/19 12:32:18;;;;;;;0.13;0.08;;;21.00;53.40;;;;;;4964620;28;20512;-66
2022/04/19 12:34:44;;;;;;;5.90;2.13;;;21.40;55.10;;;;;;4951821;29;20038;-66
2022/04/19 12:37:21;;;;;;;2.10;0.47;;;22.30;52.60;;;;;;4950594;29;20114;-66
2022/04/19 12:39:58;;;;;;;0.00;0.00;;;21.40;54.60;;;;;;4951841;29;20035;-65
2022/04/19 12:42:24;;;;;;;0.60;0.52;;;21.90;52.80;;;;;;4950816;28;20055;-65
2022/04/19 12:45:06;;;;;;;4.68;0.45;;;22.30;51.30;;;;;;4951751;29;20054;-65
2022/04/19 12:47:33;;;;;;;0.00;0.00;;;22.00;51.50;;;;;;4951822;28;20067;-66
2022/04/19 12:50:11;;;;;;;0.70;0.43;;;21.80;50.50;;;;;;4966508;28;20055;-66
2022/04/19 12:52:37;;;;;;;0.10;0.10;;;22.20;51.70;;;;;;4966331;28;20035;-66
2022/04/19 12:55:04;;;;;;;0.10;0.10;;;21.90;51.90;;;;;;4968382;28;20110;-67
2022/04/19 12:57:30;;;;;;;0.00;0.00;;;22.50;50.90;;;;;;4969753;28;20042;-65
2022/04/19 12:59:57;;;;;;;1.45;1.35;;;22.40;50.70;;;;;;4970171;28;20376;-66
2022/04/19 13:02:23;;;;;;;0.00;0.00;;;23.00;50.20;;;;;;4955031;28;20114;-66
2022/04/19 13:04:50;;;;;;;1.17;1.08;;;22.50;51.50;;;;;;4954180;29;20567;-66
2022/04/19 13:12:46;;;;;;;0.20;0.20;;;22.80;50.80;;;;;;4953568;28;20023;-66
2022/04/19 13:15:13;;;;;;;0.28;0.20;;;22.90;51.00;;;;;;4955279;28;20051;-66
2022/04/19 13:17:41;;;;;;;0.60;0.52;;;22.80;51.20;;;;;;4988938;28;20027;-66
2022/04/19 13:20:10;;;;;;;0.98;0.95;;;22.80;50.40;;;;;;4989495;28;20042;-66
2022/04/19 13:22:38;;;;;;;0.80;0.45;;;24.00;49.30;;;;;;4989171;28;20018;-67
2022/04/19 13:25:08;;;;;;;0.75;0.52;;;23.90;50.00;;;;;;4988805;28;20038;-66
2022/04/19 13:27:36;;;;;;;3.63;1.45;;;25.10;48.90;;;;;;4973655;28;20109;-64
2022/04/19 13:30:08;;;;;;;1.45;0.88;;;25.50;48.50;;;;;;4988607;28;20031;-65
2022/04/19 13:32:34;;;;;;;1.10;0.63;;;24.10;48.60;;;;;;4981424;28;20400;-65
2022/04/19 13:35:00;;;;;;;0.38;0.35;;;24.10;48.90;;;;;;4954375;29;20038;-65
2022/04/19 13:40:10;;;;;;;0.52;0.52;;;22.70;49.70;;;;;;4954525;29;20098;-67
2022/04/19 13:42:35;;;;;;;0.00;0.00;;;22.50;49.70;;;;;;4960134;28;20105;-66
2022/04/19 13:45:01;;;;;;;1.20;1.02;;;23.40;49.40;;;;;;4990494;23;20046;-69
2022/04/19 13:47:28;;;;;;;0.13;0.13;;;24.40;48.70;;;;;;4982693;28;20027;-69
2022/04/19 13:49:54;;;;;;;1.08;0.73;;;25.40;47.70;;;;;;4991496;28;20027;-69
2022/04/19 13:52:19;;;;;;;1.35;0.70;;;25.10;47.10;;;;;;4992785;28;20038;-69